Eurocargo Palermo — IBAU — position and weather

sailwx.info

Track history (hours):
 
Tides and Currents Weather Stations Pressure Air Temp Water Temp Dewpoint Dewpoint Depression Visibility Wind Speed Wind Dir Waves Ship Positions

Eurocargo Palermo

Last reported at 2018-Aug-17 04:35 UTC. Time now 2018-Aug-17 11:41 UTC.
Position N 39°27' W 000°18'.

Length 200 m; draft 6.8 m.

Type: Ship (hazmat cat D). MMSI: 247241800.

Date/timePositionNaut miles runAvg speedWind from/ knotsBaromVisibWave heightAir tempDewpointWater temp
2018-Aug-17 04:35N 39°27' W 000°18'0 0.0
2018-Aug-17 04:23N 39°27' W 000°18'0 0.0
2018-Aug-17 03:23N 39°27' W 000°18'0 0.0
2018-Aug-17 02:53N 39°27' W 000°18'0 0.0
2018-Aug-16 09:59N 39°27' W 000°18'0 0.0
2018-Aug-16 09:29N 39°27' W 000°18'  
2018-Aug-14 03:08N 39°27' W 000°18'0 1.0
2018-Aug-14 03:00N 39°26' W 000°18'3 5.5
2018-Aug-14 02:29N 39°26' W 000°15'13917.3
2018-Aug-13 18:26N 41°01' E 001°58'818.1
2018-Aug-13 17:59N 41°08' E 002°04'918.2
2018-Aug-13 17:31N 41°15' E 002°11'611.3
2018-Aug-13 17:01N 41°21' E 002°10'1 2.3
2018-Aug-13 16:28N 41°22' E 002°11'0 0.0
2018-Aug-13 15:58N 41°22' E 002°11'0 0.0
2018-Aug-13 15:28N 41°22' E 002°11'0 0.0
2018-Aug-13 14:58N 41°22' E 002°11'0 0.0
2018-Aug-13 14:28N 41°22' E 002°11'0 0.0
2018-Aug-13 13:58N 41°22' E 002°11'0 0.0
2018-Aug-13 10:19N 41°22' E 002°11'1 1.9
2018-Aug-13 10:00N 41°21' E 002°10'4 7.7
2018-Aug-13 09:30N 41°17' E 002°11'714.4
2018-Aug-13 09:00N 41°19' E 002°20'20617.7
2018-Aug-12 21:20N 42°55' E 006°27'818.7
2018-Aug-12 20:55N 42°56' E 006°38'818.4
2018-Aug-12 20:30N 42°57' E 006°48'1118.0
2018-Aug-12 19:55N 42°59' E 007°02'717.9
2018-Aug-12 19:30N 42°60' E 007°12'917.9
2018-Aug-12 19:00N 43°01' E 007°24'918.0
2018-Aug-12 18:30N 43°03' E 007°36'917.9
2018-Aug-12 18:00N 43°04' E 007°48'918.1
2018-Aug-12 17:30N 43°05' E 008°01'918.0
2018-Aug-12 17:00N 43°07' E 008°13'917.8
2018-Aug-12 16:30N 43°08' E 008°25'917.6
2018-Aug-12 16:00N 43°09' E 008°37'1017.4
2018-Aug-12 15:27N 43°11' E 008°50'1317.3
2018-Aug-12 14:43N 43°13' E 009°07'417.6
2018-Aug-12 14:30N 43°14' E 009°12'1118.1
2018-Aug-12 13:54N 43°15' E 009°27'718.3
2018-Aug-12 13:30N 43°16' E 009°37'918.3
2018-Aug-12 13:00N 43°17' E 009°49'917.4
2018-Aug-12 12:30N 43°21' E 010°00'918.4
2018-Aug-12 12:00N 43°28' E 010°08'715.0
2018-Aug-12 11:30N 43°32' E 010°16'3 5.7
2018-Aug-12 10:59N 43°35' E 010°19'0 0.0
2018-Aug-12 10:29N 43°35' E 010°19'0 0.0
2018-Aug-12 09:59N 43°35' E 010°19'0 0.0
2018-Aug-12 09:29N 43°35' E 010°19'0 0.0
2018-Aug-12 08:59N 43°35' E 010°19'0 0.0
2018-Aug-12 08:26N 43°35' E 010°19'0 0.0
2018-Aug-12 07:59N 43°35' E 010°19'0 0.0
2018-Aug-12 07:29N 43°35' E 010°19'0 0.0
2018-Aug-12 06:59N 43°35' E 010°19'0 0.0
2018-Aug-12 06:29N 43°35' E 010°19'0 0.0
2018-Aug-12 05:59N 43°35' E 010°19'0 0.0
2018-Aug-12 05:29N 43°35' E 010°19'0 0.0
2018-Aug-12 04:59N 43°35' E 010°19'0 0.0
2018-Aug-12 04:29N 43°35' E 010°19'0 0.0
2018-Aug-12 03:59N 43°35' E 010°19'0 0.0
2018-Aug-12 03:29N 43°35' E 010°19'0 0.0
2018-Aug-12 02:53N 43°35' E 010°19'0 0.0
2018-Aug-12 02:29N 43°35' E 010°19'0 0.0
2018-Aug-12 01:59N 43°35' E 010°19'0 0.0
2018-Aug-12 01:26N 43°35' E 010°19'0 0.0
2018-Aug-12 00:59N 43°35' E 010°19'0 0.0
2018-Aug-12 00:29N 43°35' E 010°19'0 0.0
2018-Aug-11 23:59N 43°35' E 010°19'0 0.0
2018-Aug-11 23:29N 43°35' E 010°19'0 0.0
2018-Aug-11 22:59N 43°35' E 010°19'0 0.0
2018-Aug-11 22:29N 43°35' E 010°19'0 0.0
2018-Aug-11 21:59N 43°35' E 010°19'0 0.0
2018-Aug-11 21:29N 43°35' E 010°19'0 0.0
2018-Aug-11 20:59N 43°35' E 010°19'0 0.0
2018-Aug-11 20:30N 43°35' E 010°19'2 4.0
2018-Aug-11 20:00N 43°33' E 010°17'2 4.6
2018-Aug-11 19:31N 43°31' E 010°16'714.4
2018-Aug-11 19:00N 43°30' E 010°06'918.7
2018-Aug-11 18:30N 43°35' E 009°55'1020.7
2018-Aug-11 18:00N 43°41' E 009°43'1020.7
2018-Aug-11 17:30N 43°47' E 009°32'1020.5
2018-Aug-11 17:00N 43°53' E 009°20'1020.2
2018-Aug-11 16:30N 43°59' E 009°09'1020.0
2018-Aug-11 16:00N 44°05' E 008°58'1020.1
2018-Aug-11 15:30N 44°11' E 008°46'1019.7
2018-Aug-11 15:00N 44°16' E 008°35'5 8.3
2018-Aug-11 14:28N 44°19' E 008°30'0 0.0
2018-Aug-11 13:58N 44°19' E 008°30'0 0.0
2018-Aug-11 13:28N 44°19' E 008°30'0 0.0
2018-Aug-11 12:58N 44°19' E 008°30'0 0.0
2018-Aug-11 12:28N 44°19' E 008°30'0 0.0
2018-Aug-11 11:58N 44°19' E 008°30'0 0.0
2018-Aug-11 11:28N 44°19' E 008°30'0 0.0
2018-Aug-11 10:58N 44°19' E 008°30'0 0.0
2018-Aug-11 10:28N 44°19' E 008°30'0 0.0
2018-Aug-11 09:58N 44°19' E 008°30'0 0.0
2018-Aug-11 09:28N 44°19' E 008°30'0 0.0
2018-Aug-11 08:58N 44°19' E 008°30'0 0.0
2018-Aug-11 08:28N 44°19' E 008°30'0 0.0
2018-Aug-11 07:58N 44°19' E 008°30'0 0.0
2018-Aug-11 07:28N 44°19' E 008°30'0 0.0
2018-Aug-11 06:58N 44°19' E 008°30'0 0.0
2018-Aug-11 06:28N 44°19' E 008°30'0 0.0
2018-Aug-11 05:58N 44°19' E 008°30'0 0.0
2018-Aug-11 05:28N 44°19' E 008°30'1 1.6
2018-Aug-11 05:00N 44°19' E 008°31'715.0
2018-Aug-11 04:30N 44°11' E 008°29'917.5
2018-Aug-11 04:00N 44°04' E 008°23'917.4
2018-Aug-11 03:30N 43°57' E 008°15'3217.2
2018-Aug-11 01:37N 43°36' E 007°41'917.6
2018-Aug-11 01:08N 43°31' E 007°31'217.6
2018-Aug-11 01:01N 43°30' E 007°29'917.5
2018-Aug-11 00:31N 43°25' E 007°19'917.6
2018-Aug-11 00:00N 43°19' E 007°09'917.4
2018-Aug-10 23:30N 43°14' E 007°00'917.3
2018-Aug-10 23:00N 43°09' E 006°51'21417.3
2018-Aug-10 10:37N 41°25' E 002°38'217.5
2018-Aug-10 10:31N 41°24' E 002°36'917.5
2018-Aug-10 10:01N 41°19' E 002°26'917.3
2018-Aug-10 09:30N 41°14' E 002°16'917.3
2018-Aug-10 09:00N 41°10' E 002°06'917.6
2018-Aug-10 08:30N 41°05' E 001°57'917.4
2018-Aug-10 08:00N 41°00' E 001°47'8 0.3
2018-Aug-09 05:54N 41°01' E 001°57'922.1
2018-Aug-09 05:30N 41°08' E 002°04'1020.3
2018-Aug-09 05:00N 41°17' E 002°11'510.2
2018-Aug-09 04:30N 41°22' E 002°11'0 0.1
2018-Aug-09 04:00N 41°22' E 002°11'0 0.0
2018-Aug-09 03:30N 41°22' E 002°11'0 0.0
2018-Aug-09 03:00N 41°22' E 002°11'0 0.0
2018-Aug-09 02:30N 41°22' E 002°11'0 0.0
2018-Aug-09 01:57N 41°22' E 002°11'0 0.0
2018-Aug-09 01:30N 41°22' E 002°11'0 0.0
2018-Aug-09 01:00N 41°22' E 002°11'0 0.0
2018-Aug-09 00:30N 41°22' E 002°11'0 0.0
2018-Aug-08 23:57N 41°22' E 002°11'0 0.3
2018-Aug-08 23:31N 41°22' E 002°11'3 6.8
2018-Aug-08 23:01N 41°18' E 002°10'5 9.3
2018-Aug-08 22:30N 41°19' E 002°17'23918.0
2018-Aug-08 09:11N 43°13' E 007°01'420.2
2018-Aug-08 09:00N 43°15' E 007°05'1121.4
2018-Aug-08 08:29N 43°21' E 007°18'3321.9
2018-Aug-08 06:58N 43°41' E 007°55'1621.9
2018-Aug-08 06:15N 43°52' E 008°11'621.9
2018-Aug-08 06:00N 43°56' E 008°15'1121.6
2018-Aug-08 05:30N 44°05' E 008°24'1020.9
2018-Aug-08 05:01N 44°14' E 008°31'5 9.5
2018-Aug-08 04:29N 44°19' E 008°30'0 0.0
2018-Aug-08 03:59N 44°19' E 008°30'0 0.0
2018-Aug-08 03:29N 44°19' E 008°30'0 0.0
2018-Aug-08 02:59N 44°19' E 008°30'0 0.0
2018-Aug-08 02:29N 44°19' E 008°30'0 0.0
2018-Aug-08 01:59N 44°19' E 008°30'0 0.0
2018-Aug-08 01:29N 44°19' E 008°30'0 0.0
2018-Aug-08 00:59N 44°19' E 008°30'0 0.0
2018-Aug-08 00:29N 44°19' E 008°30'0 0.0
2018-Aug-07 23:59N 44°19' E 008°30'0 0.0
2018-Aug-07 23:29N 44°19' E 008°30'0 0.0
2018-Aug-07 22:59N 44°19' E 008°30'0 0.0
2018-Aug-07 22:29N 44°19' E 008°30'2 3.6
2018-Aug-07 22:01N 44°18' E 008°32'917.8
2018-Aug-07 21:31N 44°13' E 008°42'1020.6
2018-Aug-07 21:01N 44°07' E 008°54'1121.4
2018-Aug-07 20:31N 44°01' E 009°06'1121.4
2018-Aug-07 20:01N 43°54' E 009°18'1121.3
2018-Aug-07 19:31N 43°48' E 009°30'1121.0
2018-Aug-07 19:00N 43°41' E 009°41'1021.0
2018-Aug-07 18:31N 43°35' E 009°53'1121.1
2018-Aug-07 18:00N 43°31' E 010°07'816.4
2018-Aug-07 17:30N 43°32' E 010°17'2 5.0
2018-Aug-07 17:00N 43°35' E 010°19'0 0.4
2018-Aug-07 16:29N 43°35' E 010°19'0 0.0
2018-Aug-07 15:59N 43°35' E 010°19'0 0.0
2018-Aug-07 15:29N 43°35' E 010°19'0 0.0
2018-Aug-07 14:59N 43°35' E 010°19'0 0.0
2018-Aug-07 14:29N 43°35' E 010°19'0 0.0
2018-Aug-07 13:56N 43°35' E 010°19'0 0.0
2018-Aug-07 13:29N 43°35' E 010°19'0 0.0
2018-Aug-07 12:59N 43°35' E 010°19'0 0.0
2018-Aug-07 12:29N 43°35' E 010°19'0 0.0
2018-Aug-07 11:56N 43°35' E 010°19'0 0.0
2018-Aug-07 11:26N 43°35' E 010°19'0 0.0
2018-Aug-07 10:59N 43°35' E 010°19'0 0.0
2018-Aug-07 10:29N 43°35' E 010°19'0 0.0
2018-Aug-07 09:59N 43°35' E 010°19'0 0.0
2018-Aug-07 09:29N 43°35' E 010°19'0 0.0
2018-Aug-07 08:59N 43°35' E 010°19'0 0.0
2018-Aug-07 08:29N 43°35' E 010°19'0 0.0
2018-Aug-07 07:59N 43°35' E 010°19'0 0.0
2018-Aug-07 07:29N 43°35' E 010°19'0 0.0
2018-Aug-07 06:59N 43°35' E 010°19'0 0.0
2018-Aug-07 06:29N 43°35' E 010°19'0 0.0
2018-Aug-07 05:59N 43°35' E 010°19'0 0.0
2018-Aug-07 05:29N 43°35' E 010°19'0 0.0
2018-Aug-07 04:59N 43°35' E 010°19'  
Track history (hours):
 
Tides and Currents Weather Stations Pressure Air Temp Water Temp Dewpoint Dewpoint Depression Visibility Wind Speed Wind Dir Waves Ship Positions

Eurocargo Palermo

Last reported at 2018-Aug-17 04:35 UTC. Time now 2018-Aug-17 11:41 UTC.
Position N 39°27' W 000°18'.

Length 200 m; draft 6.8 m.

Type: Ship (hazmat cat D). MMSI: 247241800.

Date/timePositionNaut miles runAvg speedWind from/ knotsBaromVisibWave heightAir tempDewpointWater temp
2018-Aug-17 04:35N 39°27' W 000°18'0 0.0
2018-Aug-17 04:23N 39°27' W 000°18'0 0.0
2018-Aug-17 03:23N 39°27' W 000°18'0 0.0
2018-Aug-17 02:53N 39°27' W 000°18'0 0.0
2018-Aug-16 09:59N 39°27' W 000°18'0 0.0
2018-Aug-16 09:29N 39°27' W 000°18'  
2018-Aug-14 03:08N 39°27' W 000°18'0 1.0
2018-Aug-14 03:00N 39°26' W 000°18'3 5.5
2018-Aug-14 02:29N 39°26' W 000°15'13917.3
2018-Aug-13 18:26N 41°01' E 001°58'818.1
2018-Aug-13 17:59N 41°08' E 002°04'918.2
2018-Aug-13 17:31N 41°15' E 002°11'611.3
2018-Aug-13 17:01N 41°21' E 002°10'1 2.3
2018-Aug-13 16:28N 41°22' E 002°11'0 0.0
2018-Aug-13 15:58N 41°22' E 002°11'0 0.0
2018-Aug-13 15:28N 41°22' E 002°11'0 0.0
2018-Aug-13 14:58N 41°22' E 002°11'0 0.0
2018-Aug-13 14:28N 41°22' E 002°11'0 0.0
2018-Aug-13 13:58N 41°22' E 002°11'0 0.0
2018-Aug-13 10:19N 41°22' E 002°11'1 1.9
2018-Aug-13 10:00N 41°21' E 002°10'4 7.7
2018-Aug-13 09:30N 41°17' E 002°11'714.4
2018-Aug-13 09:00N 41°19' E 002°20'20617.7
2018-Aug-12 21:20N 42°55' E 006°27'818.7
2018-Aug-12 20:55N 42°56' E 006°38'818.4
2018-Aug-12 20:30N 42°57' E 006°48'1118.0
2018-Aug-12 19:55N 42°59' E 007°02'717.9
2018-Aug-12 19:30N 42°60' E 007°12'917.9
2018-Aug-12 19:00N 43°01' E 007°24'918.0
2018-Aug-12 18:30N 43°03' E 007°36'917.9
2018-Aug-12 18:00N 43°04' E 007°48'918.1
2018-Aug-12 17:30N 43°05' E 008°01'918.0
2018-Aug-12 17:00N 43°07' E 008°13'917.8
2018-Aug-12 16:30N 43°08' E 008°25'917.6
2018-Aug-12 16:00N 43°09' E 008°37'1017.4
2018-Aug-12 15:27N 43°11' E 008°50'1317.3
2018-Aug-12 14:43N 43°13' E 009°07'417.6
2018-Aug-12 14:30N 43°14' E 009°12'1118.1
2018-Aug-12 13:54N 43°15' E 009°27'718.3
2018-Aug-12 13:30N 43°16' E 009°37'918.3
2018-Aug-12 13:00N 43°17' E 009°49'917.4
2018-Aug-12 12:30N 43°21' E 010°00'918.4
2018-Aug-12 12:00N 43°28' E 010°08'715.0
2018-Aug-12 11:30N 43°32' E 010°16'3 5.7
2018-Aug-12 10:59N 43°35' E 010°19'0 0.0
2018-Aug-12 10:29N 43°35' E 010°19'0 0.0
2018-Aug-12 09:59N 43°35' E 010°19'0 0.0
2018-Aug-12 09:29N 43°35' E 010°19'0 0.0
2018-Aug-12 08:59N 43°35' E 010°19'0 0.0
2018-Aug-12 08:26N 43°35' E 010°19'0 0.0
2018-Aug-12 07:59N 43°35' E 010°19'0 0.0
2018-Aug-12 07:29N 43°35' E 010°19'0 0.0
2018-Aug-12 06:59N 43°35' E 010°19'0 0.0
2018-Aug-12 06:29N 43°35' E 010°19'0 0.0
2018-Aug-12 05:59N 43°35' E 010°19'0 0.0
2018-Aug-12 05:29N 43°35' E 010°19'0 0.0
2018-Aug-12 04:59N 43°35' E 010°19'0 0.0
2018-Aug-12 04:29N 43°35' E 010°19'0 0.0
2018-Aug-12 03:59N 43°35' E 010°19'0 0.0
2018-Aug-12 03:29N 43°35' E 010°19'0 0.0
2018-Aug-12 02:53N 43°35' E 010°19'0 0.0
2018-Aug-12 02:29N 43°35' E 010°19'0 0.0
2018-Aug-12 01:59N 43°35' E 010°19'0 0.0
2018-Aug-12 01:26N 43°35' E 010°19'0 0.0
2018-Aug-12 00:59N 43°35' E 010°19'0 0.0
2018-Aug-12 00:29N 43°35' E 010°19'0 0.0
2018-Aug-11 23:59N 43°35' E 010°19'0 0.0
2018-Aug-11 23:29N 43°35' E 010°19'0 0.0
2018-Aug-11 22:59N 43°35' E 010°19'0 0.0
2018-Aug-11 22:29N 43°35' E 010°19'0 0.0
2018-Aug-11 21:59N 43°35' E 010°19'0 0.0
2018-Aug-11 21:29N 43°35' E 010°19'0 0.0
2018-Aug-11 20:59N 43°35' E 010°19'0 0.0
2018-Aug-11 20:30N 43°35' E 010°19'2 4.0
2018-Aug-11 20:00N 43°33' E 010°17'2 4.6
2018-Aug-11 19:31N 43°31' E 010°16'714.4
2018-Aug-11 19:00N 43°30' E 010°06'918.7
2018-Aug-11 18:30N 43°35' E 009°55'1020.7
2018-Aug-11 18:00N 43°41' E 009°43'1020.7
2018-Aug-11 17:30N 43°47' E 009°32'1020.5
2018-Aug-11 17:00N 43°53' E 009°20'1020.2
2018-Aug-11 16:30N 43°59' E 009°09'1020.0
2018-Aug-11 16:00N 44°05' E 008°58'1020.1
2018-Aug-11 15:30N 44°11' E 008°46'1019.7
2018-Aug-11 15:00N 44°16' E 008°35'5 8.3
2018-Aug-11 14:28N 44°19' E 008°30'0 0.0
2018-Aug-11 13:58N 44°19' E 008°30'0 0.0
2018-Aug-11 13:28N 44°19' E 008°30'0 0.0
2018-Aug-11 12:58N 44°19' E 008°30'0 0.0
2018-Aug-11 12:28N 44°19' E 008°30'0 0.0
2018-Aug-11 11:58N 44°19' E 008°30'0 0.0
2018-Aug-11 11:28N 44°19' E 008°30'0 0.0
2018-Aug-11 10:58N 44°19' E 008°30'0 0.0
2018-Aug-11 10:28N 44°19' E 008°30'0 0.0
2018-Aug-11 09:58N 44°19' E 008°30'0 0.0
2018-Aug-11 09:28N 44°19' E 008°30'0 0.0
2018-Aug-11 08:58N 44°19' E 008°30'0 0.0
2018-Aug-11 08:28N 44°19' E 008°30'0 0.0
2018-Aug-11 07:58N 44°19' E 008°30'0 0.0
2018-Aug-11 07:28N 44°19' E 008°30'0 0.0
2018-Aug-11 06:58N 44°19' E 008°30'0 0.0
2018-Aug-11 06:28N 44°19' E 008°30'0 0.0
2018-Aug-11 05:58N 44°19' E 008°30'0 0.0
2018-Aug-11 05:28N 44°19' E 008°30'1 1.6
2018-Aug-11 05:00N 44°19' E 008°31'715.0
2018-Aug-11 04:30N 44°11' E 008°29'917.5
2018-Aug-11 04:00N 44°04' E 008°23'917.4
2018-Aug-11 03:30N 43°57' E 008°15'3217.2
2018-Aug-11 01:37N 43°36' E 007°41'917.6
2018-Aug-11 01:08N 43°31' E 007°31'217.6
2018-Aug-11 01:01N 43°30' E 007°29'917.5
2018-Aug-11 00:31N 43°25' E 007°19'917.6
2018-Aug-11 00:00N 43°19' E 007°09'917.4
2018-Aug-10 23:30N 43°14' E 007°00'917.3
2018-Aug-10 23:00N 43°09' E 006°51'21417.3
2018-Aug-10 10:37N 41°25' E 002°38'217.5
2018-Aug-10 10:31N 41°24' E 002°36'917.5
2018-Aug-10 10:01N 41°19' E 002°26'917.3
2018-Aug-10 09:30N 41°14' E 002°16'917.3
2018-Aug-10 09:00N 41°10' E 002°06'917.6
2018-Aug-10 08:30N 41°05' E 001°57'917.4
2018-Aug-10 08:00N 41°00' E 001°47'8 0.3
2018-Aug-09 05:54N 41°01' E 001°57'922.1
2018-Aug-09 05:30N 41°08' E 002°04'1020.3
2018-Aug-09 05:00N 41°17' E 002°11'510.2
2018-Aug-09 04:30N 41°22' E 002°11'0 0.1
2018-Aug-09 04:00N 41°22' E 002°11'0 0.0
2018-Aug-09 03:30N 41°22' E 002°11'0 0.0
2018-Aug-09 03:00N 41°22' E 002°11'0 0.0
2018-Aug-09 02:30N 41°22' E 002°11'0 0.0
2018-Aug-09 01:57N 41°22' E 002°11'0 0.0
2018-Aug-09 01:30N 41°22' E 002°11'0 0.0
2018-Aug-09 01:00N 41°22' E 002°11'0 0.0
2018-Aug-09 00:30N 41°22' E 002°11'0 0.0
2018-Aug-08 23:57N 41°22' E 002°11'0 0.3
2018-Aug-08 23:31N 41°22' E 002°11'3 6.8
2018-Aug-08 23:01N 41°18' E 002°10'5 9.3
2018-Aug-08 22:30N 41°19' E 002°17'23918.0
2018-Aug-08 09:11N 43°13' E 007°01'420.2
2018-Aug-08 09:00N 43°15' E 007°05'1121.4
2018-Aug-08 08:29N 43°21' E 007°18'3321.9
2018-Aug-08 06:58N 43°41' E 007°55'1621.9
2018-Aug-08 06:15N 43°52' E 008°11'621.9
2018-Aug-08 06:00N 43°56' E 008°15'1121.6
2018-Aug-08 05:30N 44°05' E 008°24'1020.9
2018-Aug-08 05:01N 44°14' E 008°31'5 9.5
2018-Aug-08 04:29N 44°19' E 008°30'0 0.0
2018-Aug-08 03:59N 44°19' E 008°30'0 0.0
2018-Aug-08 03:29N 44°19' E 008°30'0 0.0
2018-Aug-08 02:59N 44°19' E 008°30'0 0.0
2018-Aug-08 02:29N 44°19' E 008°30'0 0.0
2018-Aug-08 01:59N 44°19' E 008°30'0 0.0
2018-Aug-08 01:29N 44°19' E 008°30'0 0.0
2018-Aug-08 00:59N 44°19' E 008°30'0 0.0
2018-Aug-08 00:29N 44°19' E 008°30'0 0.0
2018-Aug-07 23:59N 44°19' E 008°30'0 0.0
2018-Aug-07 23:29N 44°19' E 008°30'0 0.0
2018-Aug-07 22:59N 44°19' E 008°30'0 0.0
2018-Aug-07 22:29N 44°19' E 008°30'2 3.6
2018-Aug-07 22:01N 44°18' E 008°32'917.8
2018-Aug-07 21:31N 44°13' E 008°42'1020.6
2018-Aug-07 21:01N 44°07' E 008°54'1121.4
2018-Aug-07 20:31N 44°01' E 009°06'1121.4
2018-Aug-07 20:01N 43°54' E 009°18'1121.3
2018-Aug-07 19:31N 43°48' E 009°30'1121.0
2018-Aug-07 19:00N 43°41' E 009°41'1021.0
2018-Aug-07 18:31N 43°35' E 009°53'1121.1
2018-Aug-07 18:00N 43°31' E 010°07'816.4
2018-Aug-07 17:30N 43°32' E 010°17'2 5.0
2018-Aug-07 17:00N 43°35' E 010°19'0 0.4
2018-Aug-07 16:29N 43°35' E 010°19'0 0.0
2018-Aug-07 15:59N 43°35' E 010°19'0 0.0
2018-Aug-07 15:29N 43°35' E 010°19'0 0.0
2018-Aug-07 14:59N 43°35' E 010°19'0 0.0
2018-Aug-07 14:29N 43°35' E 010°19'0 0.0
2018-Aug-07 13:56N 43°35' E 010°19'0 0.0
2018-Aug-07 13:29N 43°35' E 010°19'0 0.0
2018-Aug-07 12:59N 43°35' E 010°19'0 0.0
2018-Aug-07 12:29N 43°35' E 010°19'0 0.0
2018-Aug-07 11:56N 43°35' E 010°19'0 0.0
2018-Aug-07 11:26N 43°35' E 010°19'0 0.0
2018-Aug-07 10:59N 43°35' E 010°19'0 0.0
2018-Aug-07 10:29N 43°35' E 010°19'0 0.0
2018-Aug-07 09:59N 43°35' E 010°19'0 0.0
2018-Aug-07 09:29N 43°35' E 010°19'0 0.0
2018-Aug-07 08:59N 43°35' E 010°19'0 0.0
2018-Aug-07 08:29N 43°35' E 010°19'0 0.0
2018-Aug-07 07:59N 43°35' E 010°19'0 0.0
2018-Aug-07 07:29N 43°35' E 010°19'0 0.0
2018-Aug-07 06:59N 43°35' E 010°19'0 0.0
2018-Aug-07 06:29N 43°35' E 010°19'0 0.0
2018-Aug-07 05:59N 43°35' E 010°19'0 0.0
2018-Aug-07 05:29N 43°35' E 010°19'0 0.0
2018-Aug-07 04:59N 43°35' E 010°19'  

Dump ship's entire track history